LTN weather

London Luton Airport
London, England, United Kingdom

Public forecast

Using degrees Celsius for public forecast. Weather courtesy of forecast.io.

METAR (pilot weather report)

Retrieved 2019/04/21 12:20 UTC (0 seconds ago):

EGGW 211220Z AUTO 13005KT 090V190 9999 NCD 22/06 Q1019

TAF (pilot weather forecast)

Retrieved 2019/04/21 12:00 UTC (20 minutes ago):

TAF EGGW 211102Z 2112/2212 12006KT CAVOK